Time;durP1;ratioP1;P1;durP2;ratioP2;P2;SDS_P1;SDS_P2;PMS_P1;PMS_P2;Temp;Humidity;BMP_temperature;BMP_pressure;BME280_temperature;BME280_humidity;BME280_pressure;Samples;Min_cycle;Max_cycle;Signal;HPM_P1;HPM_P2
2022/11/23 00:00:45;;;;;;;10.93;4.97;;;8.70;99.90;;;;;;5031700;28;20021;-74
2022/11/23 00:03:14;;;;;;;10.73;5.60;;;8.70;99.90;;;;;;5030959;28;20130;-73
2022/11/23 00:05:40;;;;;;;12.57;5.40;;;8.80;99.90;;;;;;5031787;28;20029;-74
2022/11/23 00:08:06;;;;;;;13.70;5.10;;;8.80;99.90;;;;;;5013529;28;20029;-74
2022/11/23 00:10:31;;;;;;;11.77;4.53;;;8.80;99.90;;;;;;5031126;28;20037;-74
2022/11/23 00:12:57;;;;;;;12.38;5.28;;;8.80;99.90;;;;;;5041912;28;20104;-73
2022/11/23 00:15:22;;;;;;;16.30;5.85;;;8.70;99.90;;;;;;5028638;28;20036;-73
2022/11/23 00:17:48;;;;;;;15.85;6.22;;;8.80;99.90;;;;;;5031356;28;20100;-73
2022/11/23 00:20:14;;;;;;;13.05;5.25;;;8.80;99.90;;;;;;5030601;28;20017;-74
2022/11/23 00:22:39;;;;;;;12.57;5.63;;;8.80;99.90;;;;;;5031663;28;20112;-74
2022/11/23 00:25:05;;;;;;;18.25;6.53;;;8.80;99.90;;;;;;5032704;28;20110;-73
2022/11/23 00:27:31;;;;;;;11.40;5.63;;;8.80;99.90;;;;;;5032027;28;20041;-74
2022/11/23 00:29:57;;;;;;;12.80;5.25;;;8.90;99.90;;;;;;5031655;28;20490;-73
2022/11/23 00:32:22;;;;;;;12.73;5.72;;;8.90;99.90;;;;;;5032566;28;20506;-74
2022/11/23 00:34:48;;;;;;;18.45;5.82;;;8.80;99.90;;;;;;5031753;28;20557;-74
2022/11/23 00:37:14;;;;;;;18.48;6.25;;;8.80;99.90;;;;;;5030038;28;20548;-73
2022/11/23 00:39:39;;;;;;;15.88;6.38;;;8.90;99.90;;;;;;5026252;28;20388;-74
2022/11/23 00:42:05;;;;;;;17.77;5.65;;;8.80;99.90;;;;;;5031154;28;20044;-73
2022/11/23 00:44:30;;;;;;;17.75;6.53;;;8.80;99.90;;;;;;5031397;28;20487;-73
2022/11/23 00:46:56;;;;;;;13.30;5.70;;;8.80;99.90;;;;;;5029606;28;20104;-73
2022/11/23 00:49:22;;;;;;;15.15;5.95;;;8.90;99.90;;;;;;5014006;28;20626;-73
2022/11/23 00:51:48;;;;;;;16.42;5.78;;;8.80;99.90;;;;;;5030626;28;20039;-74
2022/11/23 00:54:13;;;;;;;16.38;5.68;;;8.90;99.90;;;;;;5019595;28;20026;-72
2022/11/23 00:56:39;;;;;;;16.58;5.22;;;8.90;99.90;;;;;;5015265;28;20495;-73
2022/11/23 00:59:05;;;;;;;13.73;4.90;;;8.90;99.90;;;;;;5035290;28;20411;-73
2022/11/23 01:01:33;;;;;;;15.73;5.18;;;8.90;99.90;;;;;;5012953;28;20112;-73
2022/11/23 01:04:00;;;;;;;17.90;5.72;;;8.90;99.90;;;;;;5033819;28;20030;-73
2022/11/23 01:06:31;;;;;;;24.17;5.03;;;8.90;99.90;;;;;;5039143;28;20082;-74
2022/11/23 01:09:04;;;;;;;14.38;4.10;;;8.90;99.90;;;;;;5021755;28;20040;-73
2022/11/23 01:11:31;;;;;;;15.30;4.85;;;8.90;99.90;;;;;;5035537;28;20533;-74
2022/11/23 01:13:57;;;;;;;14.35;4.53;;;8.90;99.90;;;;;;5036931;28;20025;-73
2022/11/23 01:16:25;;;;;;;15.00;4.50;;;8.90;99.90;;;;;;5030723;28;20528;-74
2022/11/23 01:19:03;;;;;;;15.50;4.25;;;8.90;99.90;;;;;;5031997;28;20033;-74
2022/11/23 01:21:31;;;;;;;15.05;3.58;;;8.90;99.90;;;;;;5027283;28;20071;-72
2022/11/23 01:23:56;;;;;;;9.55;3.92;;;8.90;99.90;;;;;;5019582;28;20553;-73
2022/11/23 01:26:22;;;;;;;11.55;3.45;;;8.90;99.90;;;;;;5018386;28;20029;-74
2022/11/23 01:28:48;;;;;;;12.57;3.88;;;8.90;99.90;;;;;;5034171;28;20033;-74
2022/11/23 01:31:17;;;;;;;13.30;3.17;;;8.90;99.90;;;;;;5034283;28;20085;-73
2022/11/23 01:33:42;;;;;;;10.68;3.72;;;8.90;99.90;;;;;;5035009;28;20026;-73
2022/11/23 01:36:22;;;;;;;17.40;4.18;;;8.90;99.90;;;;;;5015884;28;20143;-73
2022/11/23 01:38:49;;;;;;;9.88;2.92;;;8.90;99.90;;;;;;5031785;28;20044;-73
2022/11/23 01:41:20;;;;;;;14.75;3.30;;;8.80;99.90;;;;;;5033539;28;20017;-73
2022/11/23 01:43:46;;;;;;;13.27;2.83;;;8.80;99.90;;;;;;5038855;28;20029;-74
2022/11/23 01:46:12;;;;;;;17.40;3.72;;;8.80;99.90;;;;;;5033281;28;20068;-73
2022/11/23 01:48:47;;;;;;;11.32;2.75;;;8.80;99.90;;;;;;5026895;28;20076;-73
2022/11/23 01:51:20;;;;;;;11.60;2.70;;;8.80;99.90;;;;;;5034044;28;20483;-73
2022/11/23 01:53:48;;;;;;;13.10;2.75;;;8.80;99.90;;;;;;5043674;28;20391;-74
2022/11/23 01:56:27;;;;;;;15.93;2.83;;;8.80;99.90;;;;;;5037924;28;20025;-74
2022/11/23 01:58:57;;;;;;;13.48;2.80;;;8.80;99.90;;;;;;5018622;28;20489;-73
2022/11/23 02:01:23;;;;;;;12.60;2.20;;;8.80;99.90;;;;;;5034543;28;20387;-72
2022/11/23 02:03:50;;;;;;;12.55;2.70;;;8.80;99.90;;;;;;5032672;28;20033;-74
2022/11/23 02:06:18;;;;;;;17.05;2.38;;;8.90;99.90;;;;;;5017473;28;20028;-72
2022/11/23 02:08:44;;;;;;;12.52;2.47;;;8.80;99.90;;;;;;5042756;28;20033;-74
2022/11/23 02:11:12;;;;;;;11.88;2.95;;;8.80;99.90;;;;;;5036927;28;20125;-73
2022/11/23 02:13:38;;;;;;;12.60;2.78;;;8.90;99.90;;;;;;5035077;28;20179;-74
2022/11/23 02:16:04;;;;;;;11.57;2.00;;;8.90;99.90;;;;;;5017598;28;20025;-73
2022/11/23 02:18:31;;;;;;;13.68;2.30;;;8.90;99.90;;;;;;5018519;28;20041;-73
2022/11/23 02:20:59;;;;;;;10.32;2.45;;;8.90;99.90;;;;;;5040241;28;20028;-73
2022/11/23 02:23:49;;;;;;;10.40;2.08;;;8.90;99.90;;;;;;5038891;28;20511;-73
2022/11/23 02:26:26;;;;;;;10.00;2.20;;;8.90;99.90;;;;;;5034156;28;20061;-73
2022/11/23 02:29:07;;;;;;;11.35;2.30;;;9.00;99.90;;;;;;5013562;28;20073;-73
2022/11/23 02:31:33;;;;;;;12.73;3.03;;;9.00;99.90;;;;;;5018332;28;20041;-74
2022/11/23 02:33:59;;;;;;;12.38;2.58;;;9.00;99.90;;;;;;5032188;28;20052;-74
2022/11/23 02:36:41;;;;;;;14.95;2.70;;;9.00;99.90;;;;;;5030195;28;20032;-73
2022/11/23 02:39:11;;;;;;;15.07;2.25;;;9.00;99.90;;;;;;5032059;28;20029;-73
2022/11/23 02:41:46;;;;;;;12.27;2.15;;;9.00;99.90;;;;;;5032245;28;20041;-74
2022/11/23 02:44:46;;;;;;;16.40;2.00;;;9.00;99.90;;;;;;5032935;28;20472;-74
2022/11/23 02:47:12;;;;;;;11.45;1.70;;;9.00;99.90;;;;;;5039015;28;20087;-74
2022/11/23 02:49:44;;;;;;;10.15;1.48;;;9.00;99.90;;;;;;5047597;28;20025;-74
2022/11/23 02:52:10;;;;;;;11.02;1.65;;;8.90;99.90;;;;;;5044814;28;20226;-72
2022/11/23 02:54:36;;;;;;;7.60;1.58;;;8.90;99.90;;;;;;5046185;28;20506;-73
2022/11/23 02:57:02;;;;;;;14.27;1.92;;;8.90;99.90;;;;;;5018962;28;20029;-73
2022/11/23 02:59:31;;;;;;;9.25;1.27;;;8.90;99.90;;;;;;5021439;28;20132;-73
2022/11/23 03:01:57;;;;;;;11.32;1.42;;;8.90;99.90;;;;;;5035223;28;20030;-73
2022/11/23 03:04:23;;;;;;;6.20;0.88;;;8.90;99.90;;;;;;5034989;28;20029;-74
2022/11/23 03:06:49;;;;;;;10.20;0.90;;;8.90;99.90;;;;;;5013453;28;20033;-74
2022/11/23 03:09:14;;;;;;;12.90;1.92;;;8.80;99.90;;;;;;5033337;28;20040;-74
2022/11/23 03:11:40;;;;;;;9.30;1.20;;;8.80;99.90;;;;;;5036329;28;20064;-74
2022/11/23 03:14:05;;;;;;;9.73;1.08;;;8.80;99.90;;;;;;5044547;28;20091;-73
2022/11/23 03:16:32;;;;;;;10.80;1.40;;;8.80;99.90;;;;;;5015500;28;20029;-73
2022/11/23 03:18:58;;;;;;;10.98;1.05;;;8.80;99.90;;;;;;5020869;28;20040;-73
2022/11/23 03:21:24;;;;;;;7.28;1.23;;;8.80;99.90;;;;;;5033713;28;20029;-73
2022/11/23 03:23:50;;;;;;;6.82;1.35;;;8.80;99.90;;;;;;5036408;28;20057;-74
2022/11/23 03:26:15;;;;;;;8.95;1.50;;;8.90;99.90;;;;;;5013275;28;20088;-75
2022/11/23 03:28:41;;;;;;;17.58;1.45;;;8.90;99.90;;;;;;5035315;28;20147;-73
2022/11/23 03:31:07;;;;;;;12.40;2.15;;;8.90;99.90;;;;;;5033004;28;20082;-73
2022/11/23 03:33:33;;;;;;;11.40;1.30;;;8.90;99.90;;;;;;5031146;28;20037;-74
2022/11/23 03:35:59;;;;;;;14.00;2.67;;;8.90;99.90;;;;;;5024828;28;20464;-73
2022/11/23 03:38:25;;;;;;;14.85;1.10;;;9.00;99.90;;;;;;5032422;28;20037;-74
2022/11/23 03:40:50;;;;;;;8.63;1.08;;;9.00;99.90;;;;;;5034682;28;20499;-74
2022/11/23 03:43:16;;;;;;;7.70;1.10;;;9.00;99.90;;;;;;5032108;28;20017;-74
2022/11/23 03:45:42;;;;;;;11.82;1.75;;;8.90;99.90;;;;;;5034837;28;20033;-73
2022/11/23 03:48:08;;;;;;;11.25;1.45;;;8.90;99.90;;;;;;5014508;28;20044;-73
2022/11/23 03:50:34;;;;;;;8.60;1.23;;;8.90;99.90;;;;;;5037759;28;20120;-74
2022/11/23 03:53:00;;;;;;;8.43;1.30;;;8.90;99.90;;;;;;5033653;28;20025;-74
2022/11/23 03:55:25;;;;;;;12.95;1.75;;;8.90;99.90;;;;;;5027987;28;20026;-74
2022/11/23 03:57:58;;;;;;;12.77;1.38;;;8.80;99.90;;;;;;5035465;28;20773;-74
2022/11/23 04:00:25;;;;;;;;;;;8.80;99.90;;;;;;5014580;28;20032;-73
2022/11/23 04:02:50;;;;;;;15.60;1.35;;;8.80;99.90;;;;;;5032109;28;19917;-74
2022/11/23 04:05:16;;;;;;;14.80;2.05;;;8.70;99.90;;;;;;5011334;28;20026;-74
2022/11/23 04:07:42;;;;;;;12.50;1.42;;;8.70;99.90;;;;;;5030944;28;20108;-74
2022/11/23 04:10:09;;;;;;;9.05;1.73;;;8.60;99.90;;;;;;5024940;28;20029;-74
2022/11/23 04:12:34;;;;;;;12.60;1.10;;;8.50;99.90;;;;;;5036951;28;20033;-73
2022/11/23 04:15:00;;;;;;;15.43;1.75;;;8.50;99.90;;;;;;5030984;28;20054;-74
2022/11/23 04:17:26;;;;;;;9.32;1.90;;;8.40;99.90;;;;;;5030035;28;20055;-74
2022/11/23 04:19:51;;;;;;;9.32;1.45;;;8.40;99.90;;;;;;5026690;28;20025;-74
2022/11/23 04:22:17;;;;;;;11.85;1.70;;;8.40;99.90;;;;;;5031711;28;20033;-74
2022/11/23 04:24:43;;;;;;;10.10;1.10;;;8.40;99.90;;;;;;5033674;28;20025;-73
2022/11/23 04:27:08;;;;;;;8.90;1.00;;;8.40;99.90;;;;;;5029331;28;20065;-74
2022/11/23 04:29:34;;;;;;;17.27;1.33;;;8.40;99.90;;;;;;5016313;28;20033;-74
2022/11/23 04:32:02;;;;;;;13.70;2.13;;;8.50;99.90;;;;;;5033421;28;20052;-74
2022/11/23 04:34:28;;;;;;;11.63;1.33;;;8.40;99.90;;;;;;5035723;28;20025;-74
2022/11/23 04:36:53;;;;;;;11.15;1.40;;;8.40;99.90;;;;;;5030697;28;20372;-74
2022/11/23 04:39:19;;;;;;;14.45;1.30;;;8.40;99.90;;;;;;5034378;28;20300;-74
2022/11/23 04:41:45;;;;;;;7.35;1.20;;;8.50;99.90;;;;;;5032612;28;20467;-74
2022/11/23 04:44:10;;;;;;;9.40;1.35;;;8.50;99.90;;;;;;5032194;28;20363;-74
2022/11/23 04:46:36;;;;;;;11.60;0.88;;;8.50;99.90;;;;;;5012761;28;20033;-73
2022/11/23 04:49:02;;;;;;;10.70;1.48;;;8.50;99.90;;;;;;5031011;28;20033;-74
2022/11/23 04:51:27;;;;;;;11.85;1.40;;;8.50;99.90;;;;;;5032385;28;20029;-73
2022/11/23 04:53:53;;;;;;;11.95;1.17;;;8.60;99.90;;;;;;5031358;28;20033;-73
2022/11/23 04:56:19;;;;;;;13.45;1.20;;;8.60;99.90;;;;;;5028136;28;20113;-73
2022/11/23 04:58:44;;;;;;;12.15;1.30;;;8.60;99.90;;;;;;5028946;28;20108;-74
2022/11/23 05:01:10;;;;;;;9.50;1.13;;;8.60;99.90;;;;;;5029399;28;20483;-73
2022/11/23 05:03:36;;;;;;;6.18;0.85;;;8.60;99.90;;;;;;5030720;28;20040;-73
2022/11/23 05:06:03;;;;;;;11.05;1.00;;;8.70;99.90;;;;;;5031202;28;20030;-73
2022/11/23 05:08:29;;;;;;;13.52;1.65;;;8.60;99.90;;;;;;5031898;28;20091;-73
2022/11/23 05:10:55;;;;;;;9.88;1.10;;;8.70;99.90;;;;;;5012729;28;20041;-74
2022/11/23 05:13:21;;;;;;;11.55;1.27;;;8.70;99.90;;;;;;5017942;28;20072;-73
2022/11/23 05:15:47;;;;;;;12.63;1.80;;;8.70;99.90;;;;;;5028881;28;20041;-74
2022/11/23 05:18:12;;;;;;;15.40;1.45;;;8.70;99.90;;;;;;5012890;28;20033;-73
2022/11/23 05:20:39;;;;;;;14.85;1.58;;;8.70;99.90;;;;;;5029251;28;20029;-74
2022/11/23 05:23:05;;;;;;;11.65;1.48;;;8.70;99.90;;;;;;5030029;28;20029;-73
2022/11/23 05:25:31;;;;;;;9.68;0.82;;;8.70;99.90;;;;;;5029707;28;20442;-74
2022/11/23 05:27:57;;;;;;;12.73;1.05;;;8.60;99.90;;;;;;5029756;28;20037;-73
2022/11/23 05:30:23;;;;;;;11.63;1.23;;;8.60;99.90;;;;;;5029049;28;20511;-72
2022/11/23 05:32:49;;;;;;;11.85;1.65;;;8.60;99.90;;;;;;5028642;28;20431;-74
2022/11/23 05:35:15;;;;;;;11.82;1.10;;;8.60;99.90;;;;;;5017239;28;20029;-74
2022/11/23 05:37:41;;;;;;;14.30;0.90;;;8.60;99.90;;;;;;5051625;28;20386;-73
2022/11/23 05:40:10;;;;;;;14.63;1.13;;;8.60;99.90;;;;;;5031319;28;20029;-75
2022/11/23 05:42:36;;;;;;;13.63;1.85;;;8.70;99.90;;;;;;5030706;28;20040;-74
2022/11/23 05:45:02;;;;;;;15.80;1.50;;;8.60;99.90;;;;;;5028529;28;20026;-74
2022/11/23 05:47:28;;;;;;;16.63;1.58;;;8.70;99.90;;;;;;5013137;28;20091;-73
2022/11/23 05:49:54;;;;;;;8.65;0.90;;;8.70;99.90;;;;;;5015568;28;20029;-73
2022/11/23 05:52:19;;;;;;;14.18;1.15;;;8.70;99.90;;;;;;5029955;28;20025;-74
2022/11/23 05:54:45;;;;;;;8.82;0.90;;;8.70;99.90;;;;;;5029649;28;20087;-74
2022/11/23 05:57:11;;;;;;;13.15;2.03;;;8.70;99.90;;;;;;5011736;28;20076;-73
2022/11/23 05:59:36;;;;;;;15.75;1.20;;;8.70;99.90;;;;;;5028782;28;20029;-74
2022/11/23 06:02:02;;;;;;;11.73;1.25;;;8.70;99.90;;;;;;5029844;28;20052;-73
2022/11/23 06:04:28;;;;;;;15.95;2.22;;;8.70;99.90;;;;;;5009536;28;20080;-74
2022/11/23 06:06:56;;;;;;;9.15;1.10;;;8.70;99.90;;;;;;5025720;28;20045;-74
2022/11/23 06:09:21;;;;;;;12.88;1.13;;;8.70;99.90;;;;;;5023281;28;20026;-73
2022/11/23 06:11:47;;;;;;;10.05;1.40;;;8.70;99.90;;;;;;5028946;28;20025;-73
2022/11/23 06:14:13;;;;;;;9.85;1.40;;;8.60;99.90;;;;;;5028558;28;20092;-74
2022/11/23 06:16:39;;;;;;;9.95;0.95;;;8.60;99.90;;;;;;5014020;28;20095;-73
2022/11/23 06:19:05;;;;;;;13.20;1.25;;;8.60;99.90;;;;;;5025833;28;20463;-74
2022/11/23 06:21:31;;;;;;;11.07;1.27;;;8.60;99.90;;;;;;5013176;28;20028;-73
2022/11/23 06:23:56;;;;;;;12.68;1.13;;;8.50;99.90;;;;;;5008602;28;20112;-74
2022/11/23 06:26:22;;;;;;;13.15;1.23;;;8.60;99.90;;;;;;5027749;28;20105;-73
2022/11/23 06:28:51;;;;;;;13.63;1.15;;;8.60;99.90;;;;;;5030947;28;20049;-74
2022/11/23 06:31:19;;;;;;;15.95;1.90;;;8.60;99.90;;;;;;5030116;28;20044;-74
2022/11/23 06:33:45;;;;;;;12.65;1.75;;;8.50;99.90;;;;;;5034178;28;20029;-75
2022/11/23 06:36:11;;;;;;;11.15;2.30;;;8.60;99.90;;;;;;5016413;28;20291;-72
2022/11/23 06:38:36;;;;;;;14.38;2.63;;;8.50;99.90;;;;;;5015845;28;20537;-74
2022/11/23 06:41:02;;;;;;;20.40;4.18;;;8.50;99.90;;;;;;5031994;28;20025;-74
2022/11/23 06:43:29;;;;;;;13.98;2.80;;;8.50;99.90;;;;;;5047559;28;20025;-74
2022/11/23 06:45:55;;;;;;;13.65;2.35;;;8.50;99.90;;;;;;5028596;28;20025;-73
2022/11/23 06:48:21;;;;;;;15.13;2.30;;;8.40;99.90;;;;;;5033754;28;20064;-73
2022/11/23 06:50:47;;;;;;;13.35;2.47;;;8.40;99.90;;;;;;5015894;28;20032;-73
2022/11/23 06:53:13;;;;;;;14.88;2.50;;;8.40;99.90;;;;;;5030110;28;20053;-72
2022/11/23 06:55:39;;;;;;;15.02;2.58;;;8.40;99.90;;;;;;5031355;28;20091;-74
2022/11/23 06:58:05;;;;;;;14.77;2.08;;;8.40;99.90;;;;;;5009315;28;20471;-74
2022/11/23 07:00:32;;;;;;;15.82;2.00;;;8.40;99.90;;;;;;5021649;28;20391;-74
2022/11/23 07:02:59;;;;;;;14.30;1.88;;;8.40;99.90;;;;;;5030850;28;20039;-74
2022/11/23 07:05:28;;;;;;;14.50;1.55;;;8.40;99.90;;;;;;5032293;28;20531;-74
2022/11/23 07:07:54;;;;;;;15.85;1.40;;;8.30;99.90;;;;;;5025767;28;20038;-74
2022/11/23 07:10:19;;;;;;;9.13;0.98;;;8.30;99.90;;;;;;5028025;28;20546;-74
2022/11/23 07:12:45;;;;;;;13.35;1.20;;;8.30;99.90;;;;;;5000587;28;20061;-72
2022/11/23 07:15:12;;;;;;;15.02;1.48;;;8.30;99.90;;;;;;5028661;28;20033;-74
2022/11/23 07:17:43;;;;;;;12.77;0.98;;;8.30;99.90;;;;;;5034031;28;20502;-74
2022/11/23 07:20:10;;;;;;;14.30;1.95;;;8.30;99.90;;;;;;5016449;28;20029;-73
2022/11/23 07:22:37;;;;;;;17.40;2.10;;;8.20;99.90;;;;;;5027392;28;20049;-74
2022/11/23 07:25:04;;;;;;;24.05;1.40;;;8.30;99.90;;;;;;5013233;28;20029;-74
2022/11/23 07:27:30;;;;;;;16.55;1.35;;;8.30;99.90;;;;;;5029736;28;20048;-73
2022/11/23 07:29:56;;;;;;;10.65;1.17;;;8.30;99.90;;;;;;5032785;28;20108;-73
2022/11/23 07:32:21;;;;;;;20.35;1.55;;;8.30;99.90;;;;;;5032455;28;20128;-73
2022/11/23 07:34:47;;;;;;;15.45;1.20;;;8.30;99.90;;;;;;5037298;28;20037;-74
2022/11/23 07:37:13;;;;;;;10.32;1.30;;;8.30;99.90;;;;;;5033361;28;20029;-73
2022/11/23 07:39:38;;;;;;;14.77;1.40;;;8.30;99.90;;;;;;5030019;28;20026;-74
2022/11/23 07:42:04;;;;;;;14.68;1.10;;;8.30;99.90;;;;;;5035294;28;20139;-73
2022/11/23 07:44:30;;;;;;;10.88;0.90;;;8.30;99.90;;;;;;5021988;28;20512;-73
2022/11/23 07:46:56;;;;;;;14.75;1.92;;;8.30;99.90;;;;;;5032846;28;20037;-73
2022/11/23 07:49:21;;;;;;;15.52;0.90;;;8.30;99.90;;;;;;5016447;28;20025;-74
2022/11/23 07:51:49;;;;;;;15.23;1.10;;;8.30;99.90;;;;;;5032686;28;20471;-73
2022/11/23 07:54:16;;;;;;;16.65;1.42;;;8.30;99.90;;;;;;5026113;28;20036;-72
2022/11/23 07:56:42;;;;;;;10.95;1.05;;;8.30;99.90;;;;;;5029733;28;20033;-74
2022/11/23 07:59:08;;;;;;;14.38;0.60;;;8.40;99.90;;;;;;5027710;28;20029;-73
2022/11/23 08:01:33;;;;;;;13.80;1.02;;;8.40;99.90;;;;;;5032145;28;20071;-73
2022/11/23 08:03:59;;;;;;;13.20;1.02;;;8.50;99.90;;;;;;5032815;28;20515;-72
2022/11/23 08:06:24;;;;;;;12.55;1.13;;;8.50;99.90;;;;;;5031271;28;20039;-73
2022/11/23 08:08:50;;;;;;;9.98;0.93;;;8.60;99.90;;;;;;5033819;28;20041;-73
2022/11/23 08:11:17;;;;;;;10.32;0.70;;;8.60;99.90;;;;;;5044625;28;20032;-73
2022/11/23 08:13:43;;;;;;;14.75;1.83;;;8.60;99.90;;;;;;5028097;28;20060;-73
2022/11/23 08:16:09;;;;;;;12.73;1.00;;;8.70;99.90;;;;;;5025918;28;20479;-73
2022/11/23 08:18:35;;;;;;;11.07;0.77;;;8.70;99.90;;;;;;5030580;28;20026;-73
2022/11/23 08:21:01;;;;;;;12.88;0.88;;;8.80;99.90;;;;;;5025388;28;20072;-73
2022/11/23 08:23:27;;;;;;;11.95;0.90;;;8.90;99.90;;;;;;5030794;28;20026;-73
2022/11/23 08:25:53;;;;;;;12.05;0.90;;;9.00;99.90;;;;;;5030397;28;20021;-74
2022/11/23 08:28:19;;;;;;;8.90;0.88;;;9.00;99.90;;;;;;5028670;28;20045;-74
2022/11/23 08:30:45;;;;;;;18.33;1.40;;;9.10;99.90;;;;;;5023832;28;20425;-73
2022/11/23 08:33:12;;;;;;;14.18;1.17;;;9.10;99.90;;;;;;5027584;28;20053;-73
2022/11/23 08:35:39;;;;;;;13.40;0.98;;;9.20;99.90;;;;;;5031024;28;20026;-74
2022/11/23 08:38:06;;;;;;;7.70;1.10;;;9.20;99.90;;;;;;5030876;28;20495;-73
2022/11/23 08:40:32;;;;;;;7.47;1.38;;;9.20;99.90;;;;;;5029277;28;20036;-73
2022/11/23 08:42:58;;;;;;;12.82;1.17;;;9.30;99.90;;;;;;5012783;28;20118;-74
2022/11/23 08:45:24;;;;;;;16.38;1.23;;;9.30;99.90;;;;;;5030387;28;20053;-72
2022/11/23 08:47:51;;;;;;;13.15;1.10;;;9.30;99.90;;;;;;5030797;28;20045;-74
2022/11/23 08:50:17;;;;;;;11.93;1.20;;;9.30;99.90;;;;;;5024835;28;20029;-73
2022/11/23 08:52:43;;;;;;;13.88;0.98;;;9.20;99.90;;;;;;5031068;28;20087;-74
2022/11/23 08:55:09;;;;;;;10.60;0.88;;;9.20;99.90;;;;;;5007960;28;20030;-74
2022/11/23 08:57:34;;;;;;;11.00;0.95;;;9.20;99.90;;;;;;5030823;28;20026;-74
2022/11/23 09:00:00;;;;;;;17.38;1.23;;;9.10;99.90;;;;;;5022845;28;20496;-73
2022/11/23 09:02:26;;;;;;;11.93;1.52;;;9.00;99.90;;;;;;5002806;28;20511;-74
2022/11/23 09:04:51;;;;;;;9.13;0.80;;;9.00;99.90;;;;;;5015374;28;20095;-73
2022/11/23 09:07:17;;;;;;;6.35;0.70;;;9.00;99.90;;;;;;5020244;28;20041;-74
2022/11/23 09:09:43;;;;;;;12.10;1.15;;;9.00;99.90;;;;;;5029258;28;20487;-73
2022/11/23 09:12:08;;;;;;;13.38;1.40;;;9.00;99.90;;;;;;5030984;28;20481;-74
2022/11/23 09:14:34;;;;;;;13.27;1.38;;;8.90;99.90;;;;;;5031478;28;20025;-73
2022/11/23 09:17:01;;;;;;;9.57;1.35;;;8.90;99.90;;;;;;5014075;28;20128;-73
2022/11/23 09:19:27;;;;;;;12.00;1.15;;;8.90;99.90;;;;;;5029158;28;20441;-73
2022/11/23 09:21:53;;;;;;;11.90;1.10;;;8.90;99.90;;;;;;5031023;28;20029;-74
2022/11/23 09:24:19;;;;;;;8.88;0.93;;;8.90;99.90;;;;;;5023893;28;20454;-73
2022/11/23 09:26:44;;;;;;;7.28;1.33;;;8.90;99.90;;;;;;5030819;28;20060;-73
2022/11/23 09:29:10;;;;;;;9.32;1.13;;;8.90;99.90;;;;;;5031169;28;20061;-73
2022/11/23 09:31:36;;;;;;;7.38;1.35;;;8.90;99.90;;;;;;5009432;28;20043;-73
2022/11/23 09:34:01;;;;;;;10.10;1.13;;;8.90;99.90;;;;;;5008147;28;20033;-74
2022/11/23 09:36:27;;;;;;;15.43;1.35;;;8.90;99.90;;;;;;5030116;28;20108;-75
2022/11/23 09:38:54;;;;;;;14.20;1.08;;;9.00;99.90;;;;;;5029793;28;20090;-73
2022/11/23 09:41:53;;;;;;;10.75;0.90;;;9.00;99.90;;;;;;5026310;28;20380;-73
2022/11/23 09:44:28;;;;;;;13.05;1.13;;;9.00;99.90;;;;;;5025259;28;20025;-74
2022/11/23 09:47:21;;;;;;;12.93;0.77;;;9.00;99.90;;;;;;5012379;28;20483;-74
2022/11/23 09:50:13;;;;;;;19.98;1.10;;;9.00;99.90;;;;;;5029345;28;20032;-74
2022/11/23 09:52:44;;;;;;;9.30;1.13;;;9.10;99.90;;;;;;5021302;28;20169;-74
2022/11/23 09:55:22;;;;;;;11.70;1.25;;;9.10;99.90;;;;;;5028275;28;20383;-73
2022/11/23 09:57:53;;;;;;;12.95;0.95;;;9.10;99.90;;;;;;5024890;28;20385;-73
2022/11/23 10:00:23;;;;;;;12.23;0.85;;;9.10;99.90;;;;;;5030336;28;20069;-74
2022/11/23 10:02:49;;;;;;;15.77;1.15;;;9.20;99.90;;;;;;5030889;28;20061;-74
2022/11/23 10:05:21;;;;;;;8.02;1.08;;;9.20;99.90;;;;;;5026738;28;20075;-75
2022/11/23 10:08:06;;;;;;;;;;;9.20;99.90;;;;;;5023049;28;20180;-73
2022/11/23 10:10:40;;;;;;;8.00;0.85;;;9.30;99.90;;;;;;5005736;28;20000;-73
2022/11/23 10:13:30;;;;;;;11.50;1.13;;;9.20;99.90;;;;;;5030104;28;20456;-75
2022/11/23 10:16:17;;;;;;;11.77;0.70;;;9.20;99.90;;;;;;5025746;28;20039;-73
2022/11/23 10:18:56;;;;;;;14.95;0.90;;;9.30;99.90;;;;;;5008459;28;20059;-74
2022/11/23 10:21:45;;;;;;;12.65;2.30;;;9.30;99.90;;;;;;5024066;28;20049;-74
2022/11/23 10:24:23;;;;;;;8.85;1.10;;;9.30;99.90;;;;;;5026920;28;21370;-75
2022/11/23 10:26:49;;;;;;;11.95;0.75;;;9.30;99.90;;;;;;5032743;28;20610;-74
2022/11/23 10:29:34;;;;;;;7.07;0.75;;;9.30;99.90;;;;;;5019712;28;20030;-74
2022/11/23 10:32:00;;;;;;;9.68;1.00;;;9.40;99.90;;;;;;5001207;28;20049;-74
2022/11/23 10:34:51;;;;;;;13.27;1.35;;;9.30;99.90;;;;;;5007884;28;20060;-74
2022/11/23 10:37:17;;;;;;;8.05;0.75;;;9.30;99.90;;;;;;5028798;28;20037;-75
2022/11/23 10:39:43;;;;;;;8.13;0.88;;;9.40;99.90;;;;;;5024421;28;20052;-75
2022/11/23 10:42:41;;;;;;;12.25;1.15;;;9.40;99.90;;;;;;5019946;28;20061;-74
2022/11/23 10:45:18;;;;;;;8.60;0.68;;;9.40;99.90;;;;;;5030187;28;20032;-74
2022/11/23 10:47:57;;;;;;;9.57;0.80;;;9.50;99.90;;;;;;5030356;28;20644;-74
2022/11/23 10:50:36;;;;;;;7.65;0.90;;;9.50;99.90;;;;;;5010724;28;20537;-74
2022/11/23 10:53:04;;;;;;;9.30;0.68;;;9.50;99.90;;;;;;5032385;28;20025;-74
2022/11/23 10:55:32;;;;;;;16.02;1.65;;;9.50;99.90;;;;;;5032321;28;20029;-75
2022/11/23 10:57:59;;;;;;;7.30;1.15;;;9.60;99.90;;;;;;5026953;28;20017;-74
2022/11/23 11:00:27;;;;;;;12.77;0.70;;;9.60;99.90;;;;;;5032197;28;20040;-75
2022/11/23 11:02:56;;;;;;;6.88;0.68;;;9.60;99.90;;;;;;5013714;28;20100;-75
2022/11/23 11:05:36;;;;;;;24.55;1.20;;;9.70;99.90;;;;;;5033474;28;20033;-76
2022/11/23 11:08:15;;;;;;;9.10;0.88;;;9.70;99.90;;;;;;5032490;28;20050;-74
2022/11/23 11:10:55;;;;;;;8.73;0.60;;;9.80;99.90;;;;;;5035493;28;20032;-76
2022/11/23 11:13:39;;;;;;;8.43;0.80;;;9.80;99.90;;;;;;5025773;28;20063;-74
2022/11/23 11:16:21;;;;;;;9.02;0.90;;;9.80;99.90;;;;;;5031998;28;20018;-75
2022/11/23 11:18:47;;;;;;;12.00;0.90;;;9.90;99.90;;;;;;5016768;28;20025;-74
2022/11/23 11:21:31;;;;;;;7.90;0.82;;;9.90;99.90;;;;;;5014759;28;20116;-75
2022/11/23 11:24:01;;;;;;;9.10;0.80;;;9.90;99.90;;;;;;5036003;28;20029;-74
2022/11/23 11:26:29;;;;;;;10.10;0.77;;;10.00;99.90;;;;;;5043582;28;20028;-75
2022/11/23 11:28:59;;;;;;;9.10;0.50;;;10.00;99.90;;;;;;5033052;28;20052;-74
2022/11/23 11:31:41;;;;;;;4.35;0.50;;;10.00;99.90;;;;;;5033444;28;20546;-74
2022/11/23 11:34:21;;;;;;;10.40;0.68;;;10.00;99.90;;;;;;5033683;28;20029;-74
2022/11/23 11:37:07;;;;;;;6.75;0.90;;;10.10;99.90;;;;;;5045932;28;20059;-74
2022/11/23 11:40:24;;;;;;;9.05;0.50;;;10.10;99.90;;;;;;5033125;28;20017;-74
2022/11/23 11:42:55;;;;;;;6.00;0.40;;;10.20;99.90;;;;;;5006451;28;20041;-73
2022/11/23 11:45:30;;;;;;;11.25;1.17;;;10.30;99.90;;;;;;5028331;28;20026;-75
2022/11/23 11:48:11;;;;;;;13.35;0.85;;;10.30;99.90;;;;;;5024257;28;20029;-75
2022/11/23 11:50:44;;;;;;;7.55;0.60;;;10.30;99.90;;;;;;5039625;28;20029;-75
2022/11/23 11:53:21;;;;;;;5.63;0.47;;;10.30;99.90;;;;;;5035660;28;20479;-74
2022/11/23 11:56:10;;;;;;;5.97;0.50;;;10.30;99.90;;;;;;5015703;28;20025;-75
2022/11/23 11:58:36;;;;;;;4.72;0.40;;;10.30;99.90;;;;;;5031341;28;20035;-74
2022/11/23 12:01:34;;;;;;;4.88;0.43;;;10.30;99.90;;;;;;5031812;28;20105;-74
2022/11/23 12:04:16;;;;;;;7.20;0.95;;;10.40;99.90;;;;;;5035797;28;20289;-74
2022/11/23 12:06:49;;;;;;;10.30;0.60;;;10.50;99.90;;;;;;5037089;28;20021;-74
2022/11/23 12:09:25;;;;;;;6.95;0.60;;;10.50;99.90;;;;;;5033093;28;20037;-75
2022/11/23 12:11:51;;;;;;;6.78;0.55;;;10.60;99.90;;;;;;5030138;28;20026;-74
2022/11/23 12:14:17;;;;;;;9.60;0.63;;;10.60;99.90;;;;;;5031701;28;20475;-75
2022/11/23 12:17:28;;;;;;;5.65;1.02;;;10.70;99.90;;;;;;5034355;28;20021;-74
2022/11/23 12:20:06;;;;;;;5.47;0.50;;;10.80;99.90;;;;;;5033865;28;20085;-75
2022/11/23 12:22:36;;;;;;;6.15;0.40;;;10.80;99.90;;;;;;5033195;28;20072;-74
2022/11/23 12:25:29;;;;;;;10.02;0.60;;;10.90;99.90;;;;;;5013947;28;20390;-74
2022/11/23 12:28:20;;;;;;;5.53;0.40;;;10.90;99.90;;;;;;5015134;28;20041;-75
2022/11/23 12:31:07;;;;;;;5.78;0.95;;;10.90;99.90;;;;;;5014423;28;20052;-75
2022/11/23 12:33:49;;;;;;;5.38;0.40;;;10.90;99.90;;;;;;5014581;28;20045;-75
2022/11/23 12:36:39;;;;;;;4.47;0.52;;;10.90;99.90;;;;;;5032406;28;20387;-74
2022/11/23 12:39:20;;;;;;;5.22;0.60;;;10.90;99.90;;;;;;5030899;28;20121;-75
2022/11/23 12:41:55;;;;;;;10.17;0.97;;;10.80;99.90;;;;;;5032115;28;20571;-75
2022/11/23 12:44:32;;;;;;;5.32;0.50;;;10.80;99.90;;;;;;5014845;28;20128;-76
2022/11/23 12:47:33;;;;;;;5.38;0.40;;;10.80;99.90;;;;;;5032807;28;20032;-75
2022/11/23 12:50:20;;;;;;;7.13;1.02;;;10.90;99.90;;;;;;4986900;28;20153;-74
2022/11/23 12:52:58;;;;;;;6.40;0.52;;;10.90;99.90;;;;;;5042328;28;20025;-74
2022/11/23 12:55:49;;;;;;;5.95;0.82;;;10.90;99.90;;;;;;5040086;28;20551;-75
2022/11/23 12:58:33;;;;;;;5.35;0.45;;;10.90;99.90;;;;;;5031805;28;20075;-74
2022/11/23 13:01:30;;;;;;;5.15;0.80;;;10.90;99.90;;;;;;5015863;28;20022;-75